sensor_id;sensor_type;location;lat;lon;timestamp;P1;durP1;ratioP1;P2;durP2;ratioP2
5831;SDS011;50943;51.448;7.646;2022-08-02T00:00:27;7.07;;;5.13;;
5831;SDS011;50943;51.448;7.646;2022-08-02T00:02:54;6.27;;;5.27;;
5831;SDS011;50943;51.448;7.646;2022-08-02T00:05:21;8.90;;;6.13;;
5831;SDS011;50943;51.448;7.646;2022-08-02T00:07:47;9.40;;;5.67;;
5831;SDS011;50943;51.448;7.646;2022-08-02T00:10:14;8.03;;;5.30;;
5831;SDS011;50943;51.448;7.646;2022-08-02T00:12:40;8.47;;;5.57;;
5831;SDS011;50943;51.448;7.646;2022-08-02T00:15:09;7.70;;;5.10;;
5831;SDS011;50943;51.448;7.646;2022-08-02T00:17:37;6.00;;;4.93;;
5831;SDS011;50943;51.448;7.646;2022-08-02T00:20:04;8.30;;;4.77;;
5831;SDS011;50943;51.448;7.646;2022-08-02T00:22:31;12.53;;;5.70;;
5831;SDS011;50943;51.448;7.646;2022-08-02T00:24:58;8.33;;;4.70;;
5831;SDS011;50943;51.448;7.646;2022-08-02T00:27:24;8.80;;;4.83;;
5831;SDS011;50943;51.448;7.646;2022-08-02T00:29:51;6.50;;;4.83;;
5831;SDS011;50943;51.448;7.646;2022-08-02T00:32:21;5.93;;;4.50;;
5831;SDS011;50943;51.448;7.646;2022-08-02T00:34:48;12.60;;;5.07;;
5831;SDS011;50943;51.448;7.646;2022-08-02T00:37:15;7.17;;;5.43;;
5831;SDS011;50943;51.448;7.646;2022-08-02T00:39:41;6.03;;;4.70;;
5831;SDS011;50943;51.448;7.646;2022-08-02T00:42:08;11.63;;;5.50;;
5831;SDS011;50943;51.448;7.646;2022-08-02T00:44:35;7.40;;;5.27;;
5831;SDS011;50943;51.448;7.646;2022-08-02T00:47:02;7.13;;;4.93;;
5831;SDS011;50943;51.448;7.646;2022-08-02T00:49:30;5.20;;;4.50;;
5831;SDS011;50943;51.448;7.646;2022-08-02T00:51:56;6.87;;;4.33;;
5831;SDS011;50943;51.448;7.646;2022-08-02T00:54:23;12.73;;;5.53;;
5831;SDS011;50943;51.448;7.646;2022-08-02T00:56:49;10.10;;;5.97;;
5831;SDS011;50943;51.448;7.646;2022-08-02T00:59:16;9.90;;;5.57;;
5831;SDS011;50943;51.448;7.646;2022-08-02T01:01:43;7.97;;;5.47;;
5831;SDS011;50943;51.448;7.646;2022-08-02T01:04:11;10.53;;;5.67;;
5831;SDS011;50943;51.448;7.646;2022-08-02T01:06:41;7.03;;;5.20;;
5831;SDS011;50943;51.448;7.646;2022-08-02T01:09:08;12.47;;;6.03;;
5831;SDS011;50943;51.448;7.646;2022-08-02T01:11:35;6.87;;;5.30;;
5831;SDS011;50943;51.448;7.646;2022-08-02T01:14:04;13.67;;;6.10;;
5831;SDS011;50943;51.448;7.646;2022-08-02T01:16:35;9.93;;;5.17;;
5831;SDS011;50943;51.448;7.646;2022-08-02T01:19:11;7.53;;;4.80;;
5831;SDS011;50943;51.448;7.646;2022-08-02T01:21:52;8.30;;;5.00;;
5831;SDS011;50943;51.448;7.646;2022-08-02T01:27:20;9.20;;;5.33;;
5831;SDS011;50943;51.448;7.646;2022-08-02T01:29:55;10.53;;;5.90;;
5831;SDS011;50943;51.448;7.646;2022-08-02T01:32:24;9.27;;;5.87;;
5831;SDS011;50943;51.448;7.646;2022-08-02T01:34:54;6.73;;;5.97;;
5831;SDS011;50943;51.448;7.646;2022-08-02T01:37:26;7.67;;;5.57;;
5831;SDS011;50943;51.448;7.646;2022-08-02T01:39:55;8.80;;;5.67;;
5831;SDS011;50943;51.448;7.646;2022-08-02T01:42:23;10.47;;;7.03;;
5831;SDS011;50943;51.448;7.646;2022-08-02T01:44:50;11.23;;;5.90;;
5831;SDS011;50943;51.448;7.646;2022-08-02T01:47:20;8.40;;;5.27;;
5831;SDS011;50943;51.448;7.646;2022-08-02T01:49:49;6.53;;;5.50;;
5831;SDS011;50943;51.448;7.646;2022-08-02T01:52:18;10.30;;;5.20;;
5831;SDS011;50943;51.448;7.646;2022-08-02T01:54:49;6.47;;;4.70;;
5831;SDS011;50943;51.448;7.646;2022-08-02T01:57:19;8.73;;;4.63;;
5831;SDS011;50943;51.448;7.646;2022-08-02T01:59:46;7.90;;;4.70;;
5831;SDS011;50943;51.448;7.646;2022-08-02T02:02:15;8.60;;;5.13;;
5831;SDS011;50943;51.448;7.646;2022-08-02T02:04:44;13.07;;;6.47;;
5831;SDS011;50943;51.448;7.646;2022-08-02T02:07:11;6.60;;;4.97;;
5831;SDS011;50943;51.448;7.646;2022-08-02T02:09:39;8.60;;;5.37;;
5831;SDS011;50943;51.448;7.646;2022-08-02T02:12:07;9.27;;;4.63;;
5831;SDS011;50943;51.448;7.646;2022-08-02T02:14:35;5.93;;;4.80;;
5831;SDS011;50943;51.448;7.646;2022-08-02T02:17:02;6.03;;;4.57;;
5831;SDS011;50943;51.448;7.646;2022-08-02T02:19:29;6.27;;;4.50;;
5831;SDS011;50943;51.448;7.646;2022-08-02T02:22:00;7.03;;;4.93;;
5831;SDS011;50943;51.448;7.646;2022-08-02T02:24:27;5.30;;;4.80;;
5831;SDS011;50943;51.448;7.646;2022-08-02T02:26:54;7.60;;;5.07;;
5831;SDS011;50943;51.448;7.646;2022-08-02T02:29:21;9.10;;;6.20;;
5831;SDS011;50943;51.448;7.646;2022-08-02T02:31:50;9.13;;;5.57;;
5831;SDS011;50943;51.448;7.646;2022-08-02T02:34:25;6.30;;;5.20;;
5831;SDS011;50943;51.448;7.646;2022-08-02T02:36:54;5.40;;;4.63;;
5831;SDS011;50943;51.448;7.646;2022-08-02T02:39:23;13.30;;;5.00;;
5831;SDS011;50943;51.448;7.646;2022-08-02T02:41:52;7.63;;;5.17;;
5831;SDS011;50943;51.448;7.646;2022-08-02T02:44:19;15.40;;;5.63;;
5831;SDS011;50943;51.448;7.646;2022-08-02T02:46:47;8.33;;;5.70;;
5831;SDS011;50943;51.448;7.646;2022-08-02T02:49:15;8.27;;;5.70;;
5831;SDS011;50943;51.448;7.646;2022-08-02T02:51:43;9.63;;;5.87;;
5831;SDS011;50943;51.448;7.646;2022-08-02T02:54:10;10.37;;;5.67;;
5831;SDS011;50943;51.448;7.646;2022-08-02T02:56:39;9.93;;;5.80;;
5831;SDS011;50943;51.448;7.646;2022-08-02T02:59:06;8.97;;;5.40;;
5831;SDS011;50943;51.448;7.646;2022-08-02T03:01:34;11.77;;;5.40;;
5831;SDS011;50943;51.448;7.646;2022-08-02T03:04:01;6.87;;;5.53;;
5831;SDS011;50943;51.448;7.646;2022-08-02T03:06:30;6.77;;;5.27;;
5831;SDS011;50943;51.448;7.646;2022-08-02T03:08:57;8.83;;;5.70;;
5831;SDS011;50943;51.448;7.646;2022-08-02T03:11:24;8.40;;;5.93;;
5831;SDS011;50943;51.448;7.646;2022-08-02T03:13:55;7.73;;;5.90;;
5831;SDS011;50943;51.448;7.646;2022-08-02T03:16:22;7.03;;;5.37;;
5831;SDS011;50943;51.448;7.646;2022-08-02T03:18:49;8.30;;;5.63;;
5831;SDS011;50943;51.448;7.646;2022-08-02T03:21:16;8.00;;;5.47;;
5831;SDS011;50943;51.448;7.646;2022-08-02T03:23:42;6.23;;;5.27;;
5831;SDS011;50943;51.448;7.646;2022-08-02T03:26:09;5.93;;;4.80;;
5831;SDS011;50943;51.448;7.646;2022-08-02T03:28:36;14.83;;;6.77;;
5831;SDS011;50943;51.448;7.646;2022-08-02T03:31:04;11.57;;;5.93;;
5831;SDS011;50943;51.448;7.646;2022-08-02T03:33:30;9.00;;;5.53;;
5831;SDS011;50943;51.448;7.646;2022-08-02T03:35:58;8.43;;;5.50;;
5831;SDS011;50943;51.448;7.646;2022-08-02T03:38:26;8.77;;;5.10;;
5831;SDS011;50943;51.448;7.646;2022-08-02T03:40:53;7.30;;;5.10;;
5831;SDS011;50943;51.448;7.646;2022-08-02T03:43:21;7.70;;;5.10;;
5831;SDS011;50943;51.448;7.646;2022-08-02T03:45:49;8.20;;;5.50;;
5831;SDS011;50943;51.448;7.646;2022-08-02T03:48:18;9.93;;;5.80;;
5831;SDS011;50943;51.448;7.646;2022-08-02T03:50:45;7.10;;;5.67;;
5831;SDS011;50943;51.448;7.646;2022-08-02T03:53:13;9.80;;;5.57;;
5831;SDS011;50943;51.448;7.646;2022-08-02T03:55:41;8.67;;;5.77;;
5831;SDS011;50943;51.448;7.646;2022-08-02T03:58:08;12.27;;;6.70;;
5831;SDS011;50943;51.448;7.646;2022-08-02T04:00:34;8.10;;;5.87;;
5831;SDS011;50943;51.448;7.646;2022-08-02T04:03:01;8.23;;;5.33;;
5831;SDS011;50943;51.448;7.646;2022-08-02T04:05:29;9.23;;;5.23;;
5831;SDS011;50943;51.448;7.646;2022-08-02T04:07:56;7.63;;;5.63;;
5831;SDS011;50943;51.448;7.646;2022-08-02T04:10:23;7.60;;;5.10;;
5831;SDS011;50943;51.448;7.646;2022-08-02T04:12:49;8.53;;;5.57;;
5831;SDS011;50943;51.448;7.646;2022-08-02T04:15:16;6.90;;;4.80;;
5831;SDS011;50943;51.448;7.646;2022-08-02T04:17:44;10.30;;;5.33;;
5831;SDS011;50943;51.448;7.646;2022-08-02T04:20:18;15.60;;;4.77;;
5831;SDS011;50943;51.448;7.646;2022-08-02T04:22:50;8.07;;;5.50;;
5831;SDS011;50943;51.448;7.646;2022-08-02T04:25:20;6.17;;;4.30;;
5831;SDS011;50943;51.448;7.646;2022-08-02T04:27:48;10.37;;;4.60;;
5831;SDS011;50943;51.448;7.646;2022-08-02T04:30:16;11.20;;;5.30;;
5831;SDS011;50943;51.448;7.646;2022-08-02T04:32:43;8.63;;;5.60;;
5831;SDS011;50943;51.448;7.646;2022-08-02T04:35:11;7.63;;;5.23;;
5831;SDS011;50943;51.448;7.646;2022-08-02T04:37:38;8.13;;;5.93;;
5831;SDS011;50943;51.448;7.646;2022-08-02T04:40:09;9.83;;;4.87;;
5831;SDS011;50943;51.448;7.646;2022-08-02T04:42:36;10.70;;;5.70;;
5831;SDS011;50943;51.448;7.646;2022-08-02T04:45:04;6.73;;;4.60;;
5831;SDS011;50943;51.448;7.646;2022-08-02T04:47:31;7.50;;;4.17;;
5831;SDS011;50943;51.448;7.646;2022-08-02T04:49:58;6.27;;;4.70;;
5831;SDS011;50943;51.448;7.646;2022-08-02T04:52:25;6.20;;;3.97;;
5831;SDS011;50943;51.448;7.646;2022-08-02T04:54:51;8.63;;;4.40;;
5831;SDS011;50943;51.448;7.646;2022-08-02T04:57:20;9.13;;;3.87;;
5831;SDS011;50943;51.448;7.646;2022-08-02T05:00:05;4.80;;;4.27;;
5831;SDS011;50943;51.448;7.646;2022-08-02T05:02:33;6.50;;;4.60;;
5831;SDS011;50943;51.448;7.646;2022-08-02T05:05:00;9.57;;;4.67;;
5831;SDS011;50943;51.448;7.646;2022-08-02T05:07:27;5.23;;;4.70;;
5831;SDS011;50943;51.448;7.646;2022-08-02T05:09:53;11.30;;;5.13;;
5831;SDS011;50943;51.448;7.646;2022-08-02T05:12:21;8.90;;;4.10;;
5831;SDS011;50943;51.448;7.646;2022-08-02T05:14:48;11.90;;;4.30;;
5831;SDS011;50943;51.448;7.646;2022-08-02T05:17:15;5.90;;;4.03;;
5831;SDS011;50943;51.448;7.646;2022-08-02T05:19:41;14.30;;;5.30;;
5831;SDS011;50943;51.448;7.646;2022-08-02T05:22:08;8.03;;;4.60;;
5831;SDS011;50943;51.448;7.646;2022-08-02T05:24:35;11.70;;;4.27;;
5831;SDS011;50943;51.448;7.646;2022-08-02T05:27:02;6.83;;;4.40;;
5831;SDS011;50943;51.448;7.646;2022-08-02T05:29:30;7.87;;;4.57;;
5831;SDS011;50943;51.448;7.646;2022-08-02T05:31:56;6.23;;;3.80;;
5831;SDS011;50943;51.448;7.646;2022-08-02T05:34:23;9.57;;;4.30;;
5831;SDS011;50943;51.448;7.646;2022-08-02T05:36:50;5.67;;;3.63;;
5831;SDS011;50943;51.448;7.646;2022-08-02T05:39:16;5.73;;;3.43;;
5831;SDS011;50943;51.448;7.646;2022-08-02T05:41:43;9.70;;;3.80;;
5831;SDS011;50943;51.448;7.646;2022-08-02T05:44:09;7.27;;;3.33;;
5831;SDS011;50943;51.448;7.646;2022-08-02T05:46:37;8.83;;;3.60;;
5831;SDS011;50943;51.448;7.646;2022-08-02T05:49:04;6.67;;;3.93;;
5831;SDS011;50943;51.448;7.646;2022-08-02T05:51:33;6.40;;;3.50;;
5831;SDS011;50943;51.448;7.646;2022-08-02T05:54:11;4.93;;;3.37;;
5831;SDS011;50943;51.448;7.646;2022-08-02T05:56:45;7.43;;;4.23;;
5831;SDS011;50943;51.448;7.646;2022-08-02T05:59:16;7.93;;;4.50;;
5831;SDS011;50943;51.448;7.646;2022-08-02T06:01:47;6.50;;;4.30;;
5831;SDS011;50943;51.448;7.646;2022-08-02T06:04:15;8.87;;;5.23;;
5831;SDS011;50943;51.448;7.646;2022-08-02T06:06:46;5.60;;;4.70;;
5831;SDS011;50943;51.448;7.646;2022-08-02T06:09:17;7.30;;;5.40;;
5831;SDS011;50943;51.448;7.646;2022-08-02T06:11:45;8.30;;;5.33;;
5831;SDS011;50943;51.448;7.646;2022-08-02T06:14:12;8.03;;;6.53;;
5831;SDS011;50943;51.448;7.646;2022-08-02T06:16:39;9.40;;;5.40;;
5831;SDS011;50943;51.448;7.646;2022-08-02T06:19:08;15.43;;;5.87;;
5831;SDS011;50943;51.448;7.646;2022-08-02T06:21:37;9.40;;;5.63;;
5831;SDS011;50943;51.448;7.646;2022-08-02T06:24:05;8.90;;;5.10;;
5831;SDS011;50943;51.448;7.646;2022-08-02T06:26:33;9.23;;;5.63;;
5831;SDS011;50943;51.448;7.646;2022-08-02T06:29:00;8.80;;;5.07;;
5831;SDS011;50943;51.448;7.646;2022-08-02T06:31:27;9.60;;;5.03;;
5831;SDS011;50943;51.448;7.646;2022-08-02T06:33:54;8.43;;;4.80;;
5831;SDS011;50943;51.448;7.646;2022-08-02T06:36:24;6.47;;;4.57;;
5831;SDS011;50943;51.448;7.646;2022-08-02T06:38:56;9.97;;;4.80;;
5831;SDS011;50943;51.448;7.646;2022-08-02T06:41:28;16.23;;;5.10;;
5831;SDS011;50943;51.448;7.646;2022-08-02T06:43:58;6.30;;;4.70;;
5831;SDS011;50943;51.448;7.646;2022-08-02T06:46:26;7.20;;;4.67;;
5831;SDS011;50943;51.448;7.646;2022-08-02T06:48:53;7.30;;;4.40;;
5831;SDS011;50943;51.448;7.646;2022-08-02T06:51:20;5.40;;;4.30;;
5831;SDS011;50943;51.448;7.646;2022-08-02T06:53:48;6.70;;;4.60;;
5831;SDS011;50943;51.448;7.646;2022-08-02T06:56:15;6.67;;;4.30;;
5831;SDS011;50943;51.448;7.646;2022-08-02T06:58:41;6.00;;;4.20;;
5831;SDS011;50943;51.448;7.646;2022-08-02T07:01:08;6.63;;;4.47;;
5831;SDS011;50943;51.448;7.646;2022-08-02T07:03:35;10.10;;;4.40;;
5831;SDS011;50943;51.448;7.646;2022-08-02T07:06:03;7.47;;;4.10;;
5831;SDS011;50943;51.448;7.646;2022-08-02T07:08:30;9.40;;;4.67;;
5831;SDS011;50943;51.448;7.646;2022-08-02T07:10:58;6.70;;;4.67;;
5831;SDS011;50943;51.448;7.646;2022-08-02T07:13:26;8.60;;;4.07;;
5831;SDS011;50943;51.448;7.646;2022-08-02T07:15:53;9.07;;;4.73;;
5831;SDS011;50943;51.448;7.646;2022-08-02T07:18:20;8.07;;;4.50;;
5831;SDS011;50943;51.448;7.646;2022-08-02T07:20:46;8.40;;;4.33;;
5831;SDS011;50943;51.448;7.646;2022-08-02T07:23:13;9.80;;;4.47;;
5831;SDS011;50943;51.448;7.646;2022-08-02T07:25:40;7.53;;;4.60;;
5831;SDS011;50943;51.448;7.646;2022-08-02T07:28:09;8.50;;;3.90;;
5831;SDS011;50943;51.448;7.646;2022-08-02T07:30:35;7.40;;;4.07;;
5831;SDS011;50943;51.448;7.646;2022-08-02T07:33:03;6.47;;;3.50;;
5831;SDS011;50943;51.448;7.646;2022-08-02T07:35:29;6.13;;;2.70;;
5831;SDS011;50943;51.448;7.646;2022-08-02T07:37:56;4.47;;;2.60;;
5831;SDS011;50943;51.448;7.646;2022-08-02T07:40:23;5.33;;;2.73;;
5831;SDS011;50943;51.448;7.646;2022-08-02T07:42:51;3.00;;;2.07;;
5831;SDS011;50943;51.448;7.646;2022-08-02T07:45:20;4.50;;;2.40;;
5831;SDS011;50943;51.448;7.646;2022-08-02T07:47:48;4.70;;;2.10;;
5831;SDS011;50943;51.448;7.646;2022-08-02T07:50:15;4.50;;;1.90;;
5831;SDS011;50943;51.448;7.646;2022-08-02T07:52:43;5.40;;;2.03;;
5831;SDS011;50943;51.448;7.646;2022-08-02T07:55:10;3.90;;;2.20;;
5831;SDS011;50943;51.448;7.646;2022-08-02T07:57:38;4.43;;;2.00;;
5831;SDS011;50943;51.448;7.646;2022-08-02T08:00:06;5.70;;;1.67;;
5831;SDS011;50943;51.448;7.646;2022-08-02T08:02:35;2.80;;;1.90;;
5831;SDS011;50943;51.448;7.646;2022-08-02T08:05:02;2.47;;;1.40;;
5831;SDS011;50943;51.448;7.646;2022-08-02T08:07:29;4.57;;;2.13;;
5831;SDS011;50943;51.448;7.646;2022-08-02T08:09:56;2.60;;;1.60;;
5831;SDS011;50943;51.448;7.646;2022-08-02T08:12:23;7.73;;;1.77;;
5831;SDS011;50943;51.448;7.646;2022-08-02T08:14:50;3.03;;;1.67;;
5831;SDS011;50943;51.448;7.646;2022-08-02T08:17:17;3.93;;;1.50;;
5831;SDS011;50943;51.448;7.646;2022-08-02T08:19:45;12.07;;;2.80;;
5831;SDS011;50943;51.448;7.646;2022-08-02T08:22:11;3.00;;;1.20;;
5831;SDS011;50943;51.448;7.646;2022-08-02T08:24:38;5.73;;;1.77;;
5831;SDS011;50943;51.448;7.646;2022-08-02T08:27:04;3.10;;;1.60;;
5831;SDS011;50943;51.448;7.646;2022-08-02T08:29:34;4.93;;;1.40;;
5831;SDS011;50943;51.448;7.646;2022-08-02T08:32:01;2.43;;;1.10;;
5831;SDS011;50943;51.448;7.646;2022-08-02T08:34:27;3.40;;;1.57;;
5831;SDS011;50943;51.448;7.646;2022-08-02T08:36:56;3.20;;;1.40;;
5831;SDS011;50943;51.448;7.646;2022-08-02T08:39:23;2.67;;;1.53;;
5831;SDS011;50943;51.448;7.646;2022-08-02T08:41:49;2.67;;;1.40;;
5831;SDS011;50943;51.448;7.646;2022-08-02T08:44:16;1.57;;;1.27;;
5831;SDS011;50943;51.448;7.646;2022-08-02T08:46:43;6.47;;;1.50;;
5831;SDS011;50943;51.448;7.646;2022-08-02T08:49:14;2.40;;;1.23;;
5831;SDS011;50943;51.448;7.646;2022-08-02T08:51:47;3.73;;;1.57;;
5831;SDS011;50943;51.448;7.646;2022-08-02T08:54:16;2.00;;;1.40;;
5831;SDS011;50943;51.448;7.646;2022-08-02T08:56:44;3.60;;;1.50;;
5831;SDS011;50943;51.448;7.646;2022-08-02T08:59:10;2.30;;;1.30;;
5831;SDS011;50943;51.448;7.646;2022-08-02T09:01:37;3.27;;;1.37;;
5831;SDS011;50943;51.448;7.646;2022-08-02T09:04:04;5.87;;;1.30;;
5831;SDS011;50943;51.448;7.646;2022-08-02T09:06:30;6.20;;;1.30;;
5831;SDS011;50943;51.448;7.646;2022-08-02T09:08:57;1.80;;;1.27;;
5831;SDS011;50943;51.448;7.646;2022-08-02T09:11:25;1.97;;;1.20;;
5831;SDS011;50943;51.448;7.646;2022-08-02T09:13:52;2.83;;;1.30;;
5831;SDS011;50943;51.448;7.646;2022-08-02T09:16:26;4.90;;;1.40;;
5831;SDS011;50943;51.448;7.646;2022-08-02T09:18:57;3.43;;;1.20;;
5831;SDS011;50943;51.448;7.646;2022-08-02T09:21:32;2.67;;;1.60;;
5831;SDS011;50943;51.448;7.646;2022-08-02T09:24:00;2.67;;;1.40;;
5831;SDS011;50943;51.448;7.646;2022-08-02T09:26:28;3.00;;;1.50;;
5831;SDS011;50943;51.448;7.646;2022-08-02T09:28:59;3.87;;;1.37;;
5831;SDS011;50943;51.448;7.646;2022-08-02T09:31:29;1.67;;;1.10;;
5831;SDS011;50943;51.448;7.646;2022-08-02T09:33:59;3.27;;;1.23;;
5831;SDS011;50943;51.448;7.646;2022-08-02T09:36:26;4.20;;;1.30;;
5831;SDS011;50943;51.448;7.646;2022-08-02T09:39:03;3.27;;;1.33;;
5831;SDS011;50943;51.448;7.646;2022-08-02T09:41:32;4.00;;;1.60;;
5831;SDS011;50943;51.448;7.646;2022-08-02T09:44:00;3.50;;;1.60;;
5831;SDS011;50943;51.448;7.646;2022-08-02T09:46:28;4.80;;;1.60;;
5831;SDS011;50943;51.448;7.646;2022-08-02T09:48:58;2.30;;;1.53;;
5831;SDS011;50943;51.448;7.646;2022-08-02T09:51:26;4.00;;;1.70;;
5831;SDS011;50943;51.448;7.646;2022-08-02T09:53:54;4.03;;;1.43;;
5831;SDS011;50943;51.448;7.646;2022-08-02T09:56:22;3.00;;;1.57;;
5831;SDS011;50943;51.448;7.646;2022-08-02T09:58:51;3.03;;;1.60;;
5831;SDS011;50943;51.448;7.646;2022-08-02T10:01:19;7.10;;;1.53;;
5831;SDS011;50943;51.448;7.646;2022-08-02T10:03:53;3.80;;;1.43;;
5831;SDS011;50943;51.448;7.646;2022-08-02T10:06:21;2.13;;;1.47;;
5831;SDS011;50943;51.448;7.646;2022-08-02T10:08:48;1.90;;;1.43;;
5831;SDS011;50943;51.448;7.646;2022-08-02T10:11:15;3.43;;;1.63;;
5831;SDS011;50943;51.448;7.646;2022-08-02T10:13:42;5.57;;;1.87;;
5831;SDS011;50943;51.448;7.646;2022-08-02T10:16:11;2.07;;;1.30;;
5831;SDS011;50943;51.448;7.646;2022-08-02T10:18:38;3.20;;;1.47;;
5831;SDS011;50943;51.448;7.646;2022-08-02T10:21:05;6.10;;;1.60;;
5831;SDS011;50943;51.448;7.646;2022-08-02T10:23:33;2.57;;;1.47;;
5831;SDS011;50943;51.448;7.646;2022-08-02T10:26:02;3.37;;;1.60;;
5831;SDS011;50943;51.448;7.646;2022-08-02T10:28:30;2.20;;;1.57;;
5831;SDS011;50943;51.448;7.646;2022-08-02T10:30:56;3.17;;;1.60;;
5831;SDS011;50943;51.448;7.646;2022-08-02T10:33:24;3.60;;;2.13;;
5831;SDS011;50943;51.448;7.646;2022-08-02T10:35:52;4.20;;;1.90;;
5831;SDS011;50943;51.448;7.646;2022-08-02T10:38:21;2.97;;;1.60;;
5831;SDS011;50943;51.448;7.646;2022-08-02T10:40:49;2.23;;;1.70;;
5831;SDS011;50943;51.448;7.646;2022-08-02T10:43:39;4.70;;;1.60;;
5831;SDS011;50943;51.448;7.646;2022-08-02T10:46:19;3.37;;;1.97;;
5831;SDS011;50943;51.448;7.646;2022-08-02T10:49:05;3.83;;;1.60;;
5831;SDS011;50943;51.448;7.646;2022-08-02T10:54:46;2.70;;;1.43;;
5831;SDS011;50943;51.448;7.646;2022-08-02T10:57:19;9.37;;;1.60;;
5831;SDS011;50943;51.448;7.646;2022-08-02T10:59:47;2.93;;;1.80;;
5831;SDS011;50943;51.448;7.646;2022-08-02T11:05:06;2.03;;;1.70;;
5831;SDS011;50943;51.448;7.646;2022-08-02T11:07:41;5.50;;;1.53;;
5831;SDS011;50943;51.448;7.646;2022-08-02T11:13:07;2.70;;;1.90;;
5831;SDS011;50943;51.448;7.646;2022-08-02T11:15:49;3.10;;;1.50;;
5831;SDS011;50943;51.448;7.646;2022-08-02T11:18:17;4.20;;;1.50;;
5831;SDS011;50943;51.448;7.646;2022-08-02T11:20:46;4.07;;;1.70;;
5831;SDS011;50943;51.448;7.646;2022-08-02T11:25:59;2.70;;;1.67;;
5831;SDS011;50943;51.448;7.646;2022-08-02T11:28:27;3.53;;;1.40;;
5831;SDS011;50943;51.448;7.646;2022-08-02T11:30:56;2.27;;;1.10;;
5831;SDS011;50943;51.448;7.646;2022-08-02T11:33:28;1.97;;;1.50;;
5831;SDS011;50943;51.448;7.646;2022-08-02T11:36:00;4.03;;;1.77;;
5831;SDS011;50943;51.448;7.646;2022-08-02T11:38:28;1.67;;;1.37;;
5831;SDS011;50943;51.448;7.646;2022-08-02T11:40:55;1.83;;;1.40;;
5831;SDS011;50943;51.448;7.646;2022-08-02T11:43:22;3.10;;;1.50;;
5831;SDS011;50943;51.448;7.646;2022-08-02T11:45:51;1.80;;;1.53;;
5831;SDS011;50943;51.448;7.646;2022-08-02T11:48:29;3.10;;;1.47;;
5831;SDS011;50943;51.448;7.646;2022-08-02T11:51:07;1.47;;;1.37;;
5831;SDS011;50943;51.448;7.646;2022-08-02T11:53:41;4.00;;;1.50;;
5831;SDS011;50943;51.448;7.646;2022-08-02T11:56:10;1.80;;;1.40;;
5831;SDS011;50943;51.448;7.646;2022-08-02T11:58:37;1.40;;;1.30;;
5831;SDS011;50943;51.448;7.646;2022-08-02T12:01:04;2.93;;;1.60;;
5831;SDS011;50943;51.448;7.646;2022-08-02T12:03:34;1.40;;;1.30;;
5831;SDS011;50943;51.448;7.646;2022-08-02T12:06:02;1.70;;;1.60;;
5831;SDS011;50943;51.448;7.646;2022-08-02T12:08:31;2.50;;;1.53;;
5831;SDS011;50943;51.448;7.646;2022-08-02T12:10:59;2.30;;;1.70;;
5831;SDS011;50943;51.448;7.646;2022-08-02T12:13:26;2.10;;;1.60;;
5831;SDS011;50943;51.448;7.646;2022-08-02T12:15:53;3.17;;;1.70;;
5831;SDS011;50943;51.448;7.646;2022-08-02T12:18:39;1.90;;;1.70;;
5831;SDS011;50943;51.448;7.646;2022-08-02T12:21:31;5.37;;;1.93;;
5831;SDS011;50943;51.448;7.646;2022-08-02T12:23:59;1.83;;;1.50;;
5831;SDS011;50943;51.448;7.646;2022-08-02T12:26:26;5.47;;;1.77;;
5831;SDS011;50943;51.448;7.646;2022-08-02T12:28:54;4.00;;;1.87;;
5831;SDS011;50943;51.448;7.646;2022-08-02T12:31:21;2.60;;;1.80;;
5831;SDS011;50943;51.448;7.646;2022-08-02T12:34:10;2.17;;;1.67;;
5831;SDS011;50943;51.448;7.646;2022-08-02T12:36:39;2.90;;;2.27;;
5831;SDS011;50943;51.448;7.646;2022-08-02T12:39:09;3.77;;;2.03;;
5831;SDS011;50943;51.448;7.646;2022-08-02T12:41:37;2.83;;;2.00;;
5831;SDS011;50943;51.448;7.646;2022-08-02T12:44:03;10.90;;;2.20;;
5831;SDS011;50943;51.448;7.646;2022-08-02T12:46:30;2.37;;;2.17;;
5831;SDS011;50943;51.448;7.646;2022-08-02T12:48:57;2.60;;;1.97;;
5831;SDS011;50943;51.448;7.646;2022-08-02T12:51:25;5.30;;;2.13;;
5831;SDS011;50943;51.448;7.646;2022-08-02T12:53:54;4.40;;;1.80;;
5831;SDS011;50943;51.448;7.646;2022-08-02T12:56:26;5.23;;;2.30;;
5831;SDS011;50943;51.448;7.646;2022-08-02T12:58:54;3.23;;;1.90;;
5831;SDS011;50943;51.448;7.646;2022-08-02T13:01:21;3.07;;;2.27;;
5831;SDS011;50943;51.448;7.646;2022-08-02T13:03:48;3.00;;;1.50;;
5831;SDS011;50943;51.448;7.646;2022-08-02T13:06:15;4.60;;;1.93;;
5831;SDS011;50943;51.448;7.646;2022-08-02T13:08:42;2.33;;;1.73;;
5831;SDS011;50943;51.448;7.646;2022-08-02T13:11:09;3.33;;;1.80;;
5831;SDS011;50943;51.448;7.646;2022-08-02T13:13:37;4.33;;;1.70;;
5831;SDS011;50943;51.448;7.646;2022-08-02T13:16:04;6.37;;;2.17;;
5831;SDS011;50943;51.448;7.646;2022-08-02T13:18:30;11.90;;;2.60;;
5831;SDS011;50943;51.448;7.646;2022-08-02T13:20:57;2.87;;;2.20;;
5831;SDS011;50943;51.448;7.646;2022-08-02T13:23:24;3.53;;;1.70;;
5831;SDS011;50943;51.448;7.646;2022-08-02T13:25:51;3.77;;;1.90;;
5831;SDS011;50943;51.448;7.646;2022-08-02T13:28:19;7.00;;;1.93;;
5831;SDS011;50943;51.448;7.646;2022-08-02T13:30:47;2.83;;;2.00;;
5831;SDS011;50943;51.448;7.646;2022-08-02T13:33:14;2.03;;;1.83;;
5831;SDS011;50943;51.448;7.646;2022-08-02T13:35:41;3.37;;;2.20;;
5831;SDS011;50943;51.448;7.646;2022-08-02T13:38:08;4.40;;;2.00;;
5831;SDS011;50943;51.448;7.646;2022-08-02T13:40:35;13.53;;;2.27;;
5831;SDS011;50943;51.448;7.646;2022-08-02T13:43:23;3.50;;;1.87;;
5831;SDS011;50943;51.448;7.646;2022-08-02T13:45:51;5.80;;;2.30;;
5831;SDS011;50943;51.448;7.646;2022-08-02T13:48:17;5.37;;;2.20;;
5831;SDS011;50943;51.448;7.646;2022-08-02T13:50:44;4.43;;;2.27;;
5831;SDS011;50943;51.448;7.646;2022-08-02T13:53:11;5.67;;;1.67;;
5831;SDS011;50943;51.448;7.646;2022-08-02T13:55:37;5.77;;;2.20;;
5831;SDS011;50943;51.448;7.646;2022-08-02T13:58:04;6.37;;;1.57;;
5831;SDS011;50943;51.448;7.646;2022-08-02T14:00:31;2.83;;;2.30;;
5831;SDS011;50943;51.448;7.646;2022-08-02T14:02:59;4.10;;;2.00;;
5831;SDS011;50943;51.448;7.646;2022-08-02T14:05:26;4.60;;;1.87;;
5831;SDS011;50943;51.448;7.646;2022-08-02T14:07:55;4.10;;;1.70;;
5831;SDS011;50943;51.448;7.646;2022-08-02T14:10:21;10.30;;;1.83;;
5831;SDS011;50943;51.448;7.646;2022-08-02T14:12:50;3.80;;;2.13;;
5831;SDS011;50943;51.448;7.646;2022-08-02T14:15:16;3.40;;;1.87;;
5831;SDS011;50943;51.448;7.646;2022-08-02T14:17:43;2.17;;;1.57;;
5831;SDS011;50943;51.448;7.646;2022-08-02T14:20:11;2.20;;;1.87;;
5831;SDS011;50943;51.448;7.646;2022-08-02T14:22:38;5.00;;;1.80;;
5831;SDS011;50943;51.448;7.646;2022-08-02T14:25:05;7.47;;;2.80;;
5831;SDS011;50943;51.448;7.646;2022-08-02T14:27:32;2.80;;;1.83;;
5831;SDS011;50943;51.448;7.646;2022-08-02T14:29:59;1.90;;;1.60;;
5831;SDS011;50943;51.448;7.646;2022-08-02T14:32:25;8.97;;;2.33;;
5831;SDS011;50943;51.448;7.646;2022-08-02T14:34:52;3.40;;;1.60;;
5831;SDS011;50943;51.448;7.646;2022-08-02T14:37:20;7.23;;;2.13;;
5831;SDS011;50943;51.448;7.646;2022-08-02T14:39:47;3.80;;;1.60;;
5831;SDS011;50943;51.448;7.646;2022-08-02T14:42:13;4.97;;;1.87;;
5831;SDS011;50943;51.448;7.646;2022-08-02T14:44:40;2.40;;;1.40;;
5831;SDS011;50943;51.448;7.646;2022-08-02T14:47:06;1.93;;;1.63;;
5831;SDS011;50943;51.448;7.646;2022-08-02T14:49:33;3.87;;;1.50;;
5831;SDS011;50943;51.448;7.646;2022-08-02T14:52:00;5.20;;;2.00;;
5831;SDS011;50943;51.448;7.646;2022-08-02T14:54:28;8.63;;;1.90;;
5831;SDS011;50943;51.448;7.646;2022-08-02T14:56:56;3.17;;;1.87;;
5831;SDS011;50943;51.448;7.646;2022-08-02T14:59:23;3.73;;;2.17;;
5831;SDS011;50943;51.448;7.646;2022-08-02T15:01:50;5.13;;;2.20;;
5831;SDS011;50943;51.448;7.646;2022-08-02T15:04:19;3.70;;;2.10;;
5831;SDS011;50943;51.448;7.646;2022-08-02T15:06:46;3.13;;;1.90;;
5831;SDS011;50943;51.448;7.646;2022-08-02T15:09:12;5.57;;;1.90;;
5831;SDS011;50943;51.448;7.646;2022-08-02T15:11:40;4.10;;;2.17;;
5831;SDS011;50943;51.448;7.646;2022-08-02T15:14:07;2.80;;;2.20;;
5831;SDS011;50943;51.448;7.646;2022-08-02T15:16:33;3.60;;;1.97;;
5831;SDS011;50943;51.448;7.646;2022-08-02T15:19:02;3.40;;;2.20;;
5831;SDS011;50943;51.448;7.646;2022-08-02T15:21:28;2.90;;;2.30;;